Time;durP1;ratioP1;P1;durP2;ratioP2;P2;SDS_P1;SDS_P2;PMS_P1;PMS_P2;Temp;Humidity;BMP_temperature;BMP_pressure;BME280_temperature;BME280_humidity;BME280_pressure;Samples;Min_cycle;Max_cycle;Signal;HPM_P1;HPM_P2
2022/06/03 00:02:29;;;;;;;5.97;2.95;;;17.60;99.90;;;;;;5070047;28;20045;-83
2022/06/03 00:05:07;;;;;;;4.85;3.10;;;17.60;99.90;;;;;;5069101;28;20045;-83
2022/06/03 00:08:21;;;;;;;4.80;3.30;;;17.60;99.90;;;;;;5070283;28;20124;-80
2022/06/03 00:11:07;;;;;;;5.82;3.25;;;17.60;99.90;;;;;;5039931;28;20426;-82
2022/06/03 00:13:55;;;;;;;4.40;3.80;;;17.60;99.90;;;;;;5072690;28;20501;-82
2022/06/03 00:16:37;;;;;;;3.70;3.35;;;17.60;99.90;;;;;;5071288;28;20128;-83
2022/06/03 00:19:36;;;;;;;4.20;3.45;;;17.60;99.90;;;;;;5067425;28;20119;-83
2022/06/03 00:22:18;;;;;;;6.22;3.20;;;17.50;99.90;;;;;;5068239;28;20426;-82
2022/06/03 00:25:00;;;;;;;4.43;3.33;;;17.50;99.90;;;;;;5067939;28;20055;-82
2022/06/03 00:27:38;;;;;;;6.55;3.78;;;17.50;99.90;;;;;;5069203;28;20069;-82
2022/06/03 00:30:21;;;;;;;3.90;3.58;;;17.40;99.90;;;;;;5071820;28;20123;-82
2022/06/03 00:33:13;;;;;;;3.90;3.50;;;17.50;99.90;;;;;;5072822;28;20072;-82
2022/06/03 00:36:00;;;;;;;4.28;3.30;;;17.40;99.90;;;;;;5073173;28;20049;-81
2022/06/03 00:38:57;;;;;;;4.45;3.03;;;17.40;99.90;;;;;;5057356;28;20048;-82
2022/06/03 00:41:30;;;;;;;4.20;3.15;;;17.40;99.90;;;;;;5064028;28;20076;-81
2022/06/03 00:44:34;;;;;;;5.10;3.20;;;17.30;99.90;;;;;;5068143;28;20513;-83
2022/06/03 00:47:16;;;;;;;3.58;3.28;;;17.30;99.90;;;;;;5068473;28;20053;-83
2022/06/03 00:50:20;;;;;;;4.85;3.05;;;17.20;99.90;;;;;;5067557;28;20044;-82
2022/06/03 00:53:15;;;;;;;4.55;3.53;;;17.20;99.90;;;;;;5069993;28;20406;-81
2022/06/03 00:56:03;;;;;;;6.03;3.40;;;17.20;99.90;;;;;;5068436;28;20041;-84
2022/06/03 00:59:12;;;;;;;4.88;3.55;;;17.20;99.90;;;;;;5051573;28;20418;-83
2022/06/03 01:01:52;;;;;;;4.18;3.35;;;17.10;99.90;;;;;;5055161;28;20124;-83
2022/06/03 01:04:44;;;;;;;3.38;3.03;;;17.10;99.90;;;;;;5048539;28;20055;-83
2022/06/03 01:07:28;;;;;;;4.38;3.55;;;17.00;99.90;;;;;;5062203;28;20095;-83
2022/06/03 01:10:13;;;;;;;3.67;3.10;;;17.00;99.90;;;;;;5070395;28;20409;-82
2022/06/03 01:13:04;;;;;;;3.75;3.08;;;17.00;99.90;;;;;;5058641;28;20079;-81
2022/06/03 01:15:55;;;;;;;2.97;2.78;;;16.90;99.90;;;;;;5071545;28;20075;-82
2022/06/03 01:18:29;;;;;;;;;;;16.80;99.90;;;;;;5061725;28;20114;-81
2022/06/03 01:21:18;;;;;;;3.88;2.83;;;16.80;99.90;;;;;;5071860;28;20300;-80
2022/06/03 01:24:16;;;;;;;5.78;2.95;;;16.80;99.90;;;;;;5050282;28;20449;-82
2022/06/03 01:27:21;;;;;;;4.25;3.03;;;16.80;99.90;;;;;;5068134;28;20045;-82
2022/06/03 01:30:02;;;;;;;4.03;2.78;;;16.90;99.90;;;;;;5066307;28;20045;-82
2022/06/03 01:32:47;;;;;;;4.72;2.83;;;16.90;99.90;;;;;;5068130;28;20049;-82
2022/06/03 01:35:36;;;;;;;4.28;3.00;;;16.90;99.90;;;;;;5059279;28;20045;-82
2022/06/03 01:38:29;;;;;;;5.30;3.50;;;16.90;99.90;;;;;;5068111;28;20068;-83
2022/06/03 01:41:33;;;;;;;4.22;3.30;;;17.00;99.90;;;;;;5067425;28;20131;-82
2022/06/03 01:44:21;;;;;;;3.95;3.20;;;17.10;99.90;;;;;;5067319;28;20048;-82
2022/06/03 01:47:05;;;;;;;4.50;3.00;;;17.10;99.90;;;;;;5075534;28;20080;-83
2022/06/03 01:49:47;;;;;;;5.38;3.20;;;17.10;99.90;;;;;;5052270;28;20055;-82
2022/06/03 01:52:36;;;;;;;5.03;2.70;;;17.10;99.90;;;;;;5072584;28;20045;-83
2022/06/03 01:55:31;;;;;;;3.47;3.13;;;17.10;99.90;;;;;;5072238;28;20045;-84
2022/06/03 01:59:03;;;;;;;6.43;3.70;;;17.10;99.90;;;;;;5067563;28;20053;-83
2022/06/03 02:01:57;;;;;;;6.55;3.38;;;17.10;99.90;;;;;;4990104;28;20608;-82
2022/06/03 02:04:51;;;;;;;5.25;3.65;;;17.10;99.90;;;;;;4990528;28;20109;-83
2022/06/03 02:07:44;;;;;;;5.05;3.40;;;17.10;99.90;;;;;;5053297;28;20051;-83
2022/06/03 02:10:45;;;;;;;4.65;3.42;;;17.10;99.90;;;;;;5070290;28;20053;-83
2022/06/03 02:13:24;;;;;;;4.63;3.30;;;17.10;99.90;;;;;;5071633;28;20051;-82
2022/06/03 02:16:01;;;;;;;4.50;3.90;;;17.10;99.90;;;;;;5069366;28;20045;-83
2022/06/03 02:18:47;;;;;;;3.58;3.28;;;17.10;99.90;;;;;;5067474;28;20293;-82
2022/06/03 02:21:32;;;;;;;5.55;3.30;;;17.00;99.90;;;;;;5071254;28;20053;-83
2022/06/03 02:24:19;;;;;;;6.65;3.45;;;17.00;99.90;;;;;;5069653;28;20140;-83
2022/06/03 02:27:22;;;;;;;5.57;3.50;;;17.00;99.90;;;;;;5073174;28;20046;-82
2022/06/03 02:30:26;;;;;;;9.30;3.65;;;16.80;99.90;;;;;;5052729;28;20044;-82
2022/06/03 02:32:59;;;;;;;4.47;3.28;;;16.70;99.90;;;;;;5067970;28;20132;-82
2022/06/03 02:35:44;;;;;;;5.78;3.20;;;16.60;99.90;;;;;;5069829;28;20064;-81
2022/06/03 02:38:25;;;;;;;4.30;3.15;;;16.60;99.90;;;;;;5075089;28;20056;-82
2022/06/03 02:41:01;;;;;;;6.10;3.05;;;16.60;99.90;;;;;;5076545;28;20048;-81
2022/06/03 02:43:53;;;;;;;3.95;3.33;;;16.60;99.90;;;;;;5072091;28;20053;-81
2022/06/03 02:46:28;;;;;;;8.50;3.42;;;16.60;99.90;;;;;;5053212;28;20049;-82
2022/06/03 02:49:17;;;;;;;4.78;4.03;;;16.60;99.90;;;;;;5056291;28;20048;-81
2022/06/03 02:52:17;;;;;;;6.45;3.95;;;16.60;99.90;;;;;;5051358;28;20045;-83
2022/06/03 02:55:19;;;;;;;5.45;4.65;;;16.60;99.90;;;;;;5066960;28;20049;-82
2022/06/03 02:58:11;;;;;;;4.93;4.20;;;16.60;99.90;;;;;;5062161;28;20058;-82
2022/06/03 03:00:59;;;;;;;5.40;3.75;;;16.50;99.90;;;;;;5077785;28;20059;-82
2022/06/03 03:03:32;;;;;;;5.35;4.18;;;16.50;99.90;;;;;;5073837;28;20036;-82
2022/06/03 03:06:23;;;;;;;5.03;4.07;;;16.50;99.90;;;;;;5082336;28;20051;-84
2022/06/03 03:09:01;;;;;;;6.85;3.60;;;16.50;99.90;;;;;;5081338;28;20055;-83
2022/06/03 03:11:47;;;;;;;6.00;4.35;;;16.50;99.90;;;;;;5079974;28;20430;-82
2022/06/03 03:14:47;;;;;;;8.57;3.95;;;16.50;99.90;;;;;;5081276;28;20076;-84
2022/06/03 03:17:44;;;;;;;6.82;4.13;;;16.50;99.90;;;;;;5080351;28;20049;-82
2022/06/03 03:20:26;;;;;;;4.80;3.03;;;16.50;99.90;;;;;;5069020;28;20049;-82
2022/06/03 03:23:22;;;;;;;5.13;3.53;;;16.50;99.90;;;;;;5059519;28;20502;-81
2022/06/03 03:26:02;;;;;;;4.03;3.40;;;16.40;99.90;;;;;;5066541;28;20049;-82
2022/06/03 03:28:48;;;;;;;4.22;3.75;;;16.40;99.90;;;;;;5066851;28;20067;-82
2022/06/03 03:31:45;;;;;;;6.32;3.95;;;16.40;99.90;;;;;;5048527;28;20049;-81
2022/06/03 03:34:40;;;;;;;4.63;3.58;;;16.40;99.90;;;;;;5070898;28;20049;-83
2022/06/03 03:37:28;;;;;;;3.65;3.35;;;16.30;99.90;;;;;;5072977;28;20059;-82
2022/06/03 03:40:01;;;;;;;4.15;3.83;;;16.30;99.90;;;;;;5072026;28;20522;-81
2022/06/03 03:42:50;;;;;;;9.57;4.00;;;16.30;99.90;;;;;;5071016;28;20048;-81
2022/06/03 03:45:48;;;;;;;5.88;4.35;;;16.20;99.90;;;;;;5071706;28;20506;-83
2022/06/03 03:48:44;;;;;;;5.93;4.05;;;16.20;99.90;;;;;;5069349;28;20204;-81
2022/06/03 03:51:20;;;;;;;7.18;3.50;;;16.10;99.90;;;;;;5078590;28;20080;-84
2022/06/03 03:54:26;;;;;;;4.80;3.83;;;16.10;99.90;;;;;;5057110;28;20461;-81
2022/06/03 03:57:23;;;;;;;4.50;3.60;;;16.10;99.90;;;;;;5069748;28;20290;-82
2022/06/03 04:00:14;;;;;;;4.18;3.50;;;16.10;99.90;;;;;;5069166;28;20075;-82
2022/06/03 04:03:14;;;;;;;7.93;4.20;;;16.00;99.90;;;;;;5069006;28;20049;-81
2022/06/03 04:06:22;;;;;;;6.85;4.10;;;16.10;99.90;;;;;;5068924;28;20048;-82
2022/06/03 04:09:03;;;;;;;5.15;4.10;;;16.10;99.90;;;;;;5030175;28;20056;-81
2022/06/03 04:12:00;;;;;;;5.20;3.90;;;16.10;99.90;;;;;;5068149;28;20041;-81
2022/06/03 04:15:00;;;;;;;5.75;3.63;;;16.10;99.90;;;;;;5066791;28;20045;-82
2022/06/03 04:17:58;;;;;;;10.65;4.10;;;16.20;99.90;;;;;;5071596;28;20049;-80
2022/06/03 04:20:46;;;;;;;3.85;3.50;;;16.20;99.90;;;;;;5070055;28;20143;-81
2022/06/03 04:23:43;;;;;;;3.83;3.38;;;16.20;99.90;;;;;;5072124;28;20123;-82
2022/06/03 04:26:22;;;;;;;5.40;3.75;;;16.30;99.90;;;;;;5077897;28;20072;-80
2022/06/03 04:28:54;;;;;;;4.13;3.70;;;16.40;99.90;;;;;;5071307;28;20137;-80
2022/06/03 04:32:15;;;;;;;7.38;3.60;;;16.30;99.90;;;;;;5061780;28;20055;-80
2022/06/03 04:35:14;;;;;;;4.07;3.67;;;16.40;99.90;;;;;;5017314;28;20052;-81
2022/06/03 04:38:00;;;;;;;5.30;3.78;;;16.50;99.90;;;;;;5053611;28;20132;-79
2022/06/03 04:40:58;;;;;;;4.80;3.33;;;16.50;99.90;;;;;;5065992;28;20052;-81
2022/06/03 04:44:02;;;;;;;4.22;3.10;;;16.60;99.90;;;;;;5076961;28;20057;-80
2022/06/03 04:47:05;;;;;;;5.30;3.50;;;16.70;99.90;;;;;;5068401;28;20048;-80
2022/06/03 04:49:32;;;;;;;5.85;3.15;;;16.80;99.90;;;;;;5071631;28;20051;-81
2022/06/03 04:52:20;;;;;;;4.55;3.05;;;16.90;99.90;;;;;;5069983;28;20108;-83
2022/06/03 04:55:24;;;;;;;5.40;3.20;;;17.00;99.90;;;;;;5069338;28;20080;-82
2022/06/03 04:58:29;;;;;;;5.32;3.17;;;17.10;99.90;;;;;;5071217;28;20048;-81
2022/06/03 05:01:14;;;;;;;4.50;2.92;;;17.30;99.90;;;;;;5068349;28;20084;-81
2022/06/03 05:04:27;;;;;;;5.30;3.05;;;17.40;99.90;;;;;;5068182;28;20143;-81
2022/06/03 05:07:19;;;;;;;5.53;3.45;;;17.70;99.90;;;;;;5069510;28;20084;-81
2022/06/03 05:10:11;;;;;;;3.83;3.20;;;18.00;99.90;;;;;;5069930;28;20044;-80
2022/06/03 05:13:16;;;;;;;6.00;4.03;;;18.30;99.90;;;;;;5034167;28;20040;-81
2022/06/03 05:16:07;;;;;;;6.35;4.88;;;18.60;99.90;;;;;;5057714;28;20124;-79
2022/06/03 05:18:54;;;;;;;8.32;5.65;;;18.80;99.90;;;;;;5057138;28;20048;-79
2022/06/03 05:21:45;;;;;;;11.02;5.85;;;18.90;99.90;;;;;;5058995;28;20049;-81
2022/06/03 05:24:59;;;;;;;8.00;6.88;;;18.90;99.90;;;;;;5072618;28;20045;-81
2022/06/03 05:27:41;;;;;;;8.30;6.88;;;18.90;99.90;;;;;;5075449;28;20072;-82
2022/06/03 05:30:45;;;;;;;8.73;6.60;;;18.90;99.90;;;;;;5060570;28;20069;-82
2022/06/03 05:33:35;;;;;;;9.95;6.13;;;18.80;99.90;;;;;;5057615;28;20076;-82
2022/06/03 05:36:21;;;;;;;9.48;6.70;;;18.80;99.90;;;;;;5076283;28;20068;-81
2022/06/03 05:39:25;;;;;;;8.55;6.50;;;18.80;99.90;;;;;;5067953;28;20048;-82
2022/06/03 05:42:30;;;;;;;7.72;6.72;;;18.90;99.90;;;;;;5065714;28;20052;-82
2022/06/03 05:45:18;;;;;;;12.05;6.95;;;18.90;99.90;;;;;;5069180;28;20056;-81
2022/06/03 05:47:56;;;;;;;16.15;7.18;;;19.00;99.90;;;;;;5073553;28;20614;-81
2022/06/03 05:50:43;;;;;;;11.07;7.55;;;18.90;99.90;;;;;;5072096;28;20090;-81
2022/06/03 05:53:38;;;;;;;9.00;6.93;;;19.00;99.90;;;;;;5073427;28;20135;-82
2022/06/03 05:56:36;;;;;;;10.05;7.57;;;18.90;99.90;;;;;;5071909;28;20121;-80
2022/06/03 05:59:37;;;;;;;9.65;7.50;;;18.90;99.90;;;;;;5056480;28;20060;-82
2022/06/03 06:02:38;;;;;;;11.93;6.53;;;19.00;99.90;;;;;;5058108;28;20075;-82
2022/06/03 06:05:27;;;;;;;;;;;19.10;99.90;;;;;;5072650;28;20513;-82
2022/06/03 06:08:22;;;;;;;8.02;5.70;;;19.20;99.90;;;;;;5067817;28;19925;-83
2022/06/03 06:11:04;;;;;;;8.32;5.50;;;19.30;99.90;;;;;;5067765;28;20108;-82
2022/06/03 06:13:49;;;;;;;8.00;6.10;;;19.50;99.90;;;;;;5066512;28;20049;-82
2022/06/03 06:16:40;;;;;;;8.20;7.05;;;19.50;99.90;;;;;;5065688;28;20048;-82
2022/06/03 06:19:29;;;;;;;8.95;6.72;;;19.60;99.90;;;;;;5068635;28;20045;-82
2022/06/03 06:21:58;;;;;;;9.50;7.13;;;19.60;99.90;;;;;;5066701;28;20540;-81
2022/06/03 06:24:34;;;;;;;11.32;7.30;;;19.70;99.90;;;;;;5056183;28;20103;-83
2022/06/03 06:27:30;;;;;;;8.73;7.82;;;19.70;99.90;;;;;;5066193;28;20056;-83
2022/06/03 06:30:19;;;;;;;13.07;8.57;;;19.70;99.90;;;;;;5066402;28;20469;-82
2022/06/03 06:33:12;;;;;;;11.88;7.88;;;19.70;99.90;;;;;;5066613;28;20057;-83
2022/06/03 06:35:44;;;;;;;11.52;8.27;;;19.70;99.90;;;;;;5067094;28;20083;-82
2022/06/03 06:38:33;;;;;;;8.30;7.50;;;19.70;99.90;;;;;;5067050;28;20059;-82
2022/06/03 06:41:35;;;;;;;11.50;7.20;;;19.70;99.90;;;;;;5049886;28;20513;-82
2022/06/03 06:44:07;;;;;;;9.60;5.05;;;19.60;99.90;;;;;;5068185;28;20052;-82
2022/06/03 06:47:00;;;;;;;7.05;5.10;;;19.40;99.90;;;;;;5052027;28;20080;-82
2022/06/03 06:49:41;;;;;;;8.30;4.80;;;19.30;99.90;;;;;;5057163;28;20052;-82
2022/06/03 06:52:24;;;;;;;7.50;4.85;;;19.40;99.90;;;;;;5046761;28;20045;-82
2022/06/03 06:54:53;;;;;;;5.68;4.80;;;19.20;99.90;;;;;;5057043;28;20055;-82
2022/06/03 06:57:31;;;;;;;10.20;5.03;;;19.10;99.90;;;;;;5059241;28;20510;-83
2022/06/03 07:00:04;;;;;;;9.07;4.53;;;19.10;99.90;;;;;;5047150;28;20079;-82
2022/06/03 07:02:42;;;;;;;6.57;4.10;;;19.20;99.90;;;;;;5067104;28;20112;-82
2022/06/03 07:05:39;;;;;;;6.05;4.40;;;19.30;99.90;;;;;;5057692;28;20063;-82
2022/06/03 07:08:19;;;;;;;7.45;4.47;;;19.50;99.90;;;;;;5070536;28;20416;-83
2022/06/03 07:10:54;;;;;;;5.40;3.95;;;19.60;99.90;;;;;;5072315;28;20049;-83
2022/06/03 07:13:47;;;;;;;6.93;4.40;;;19.70;99.90;;;;;;5053510;28;20045;-81
2022/06/03 07:19:48;;;;;;;14.18;8.57;;;19.90;99.90;;;;;;5070434;28;20056;-83
2022/06/03 07:22:24;;;;;;;11.90;8.70;;;20.00;99.90;;;;;;5072325;28;20041;-81
2022/06/03 07:25:15;;;;;;;14.80;8.52;;;20.10;99.90;;;;;;5071044;28;20048;-83
2022/06/03 07:28:22;;;;;;;10.25;7.45;;;20.20;99.90;;;;;;5073178;28;20065;-83
2022/06/03 07:30:52;;;;;;;12.63;7.38;;;20.30;99.90;;;;;;5071117;28;20156;-81
2022/06/03 07:33:30;;;;;;;8.52;6.85;;;20.40;99.90;;;;;;5056184;28;20059;-83
2022/06/03 07:36:16;;;;;;;12.60;7.47;;;20.40;99.90;;;;;;5071299;28;20071;-83
2022/06/03 07:39:37;;;;;;;16.73;7.35;;;20.60;99.90;;;;;;5073821;28;20076;-82
2022/06/03 07:42:13;;;;;;;10.63;6.32;;;20.70;99.90;;;;;;5020727;28;20088;-84
2022/06/03 07:44:44;;;;;;;16.02;8.73;;;20.80;99.90;;;;;;5056481;28;20059;-83
2022/06/03 07:47:13;;;;;;;12.35;9.02;;;20.90;99.90;;;;;;5070304;28;20490;-84
2022/06/03 07:49:42;;;;;;;15.57;9.25;;;20.80;99.90;;;;;;5071056;28;20045;-83
2022/06/03 07:52:23;;;;;;;16.13;9.60;;;20.90;99.90;;;;;;5071872;28;20409;-83
2022/06/03 07:54:55;;;;;;;12.48;9.65;;;20.90;99.90;;;;;;5074508;28;20049;-82
2022/06/03 07:57:27;;;;;;;12.25;8.73;;;21.00;99.90;;;;;;5062927;28;20160;-83
2022/06/03 08:00:03;;;;;;;13.05;8.20;;;21.10;99.90;;;;;;5071139;28;20048;-82
2022/06/03 08:02:30;;;;;;;11.18;7.85;;;21.20;99.90;;;;;;5051592;28;20578;-82
2022/06/03 08:05:18;;;;;;;10.90;7.38;;;21.30;99.90;;;;;;5056820;28;20049;-82
2022/06/03 08:10:59;;;;;;;12.55;8.38;;;21.40;99.90;;;;;;5060260;28;20045;-82
2022/06/03 08:13:48;;;;;;;18.10;9.35;;;21.20;99.90;;;;;;5061578;28;20053;-83
2022/06/03 08:16:24;;;;;;;10.70;8.07;;;21.10;99.90;;;;;;5051701;28;20052;-83
2022/06/03 08:18:56;;;;;;;9.38;8.00;;;21.20;99.90;;;;;;5069815;28;20099;-83
2022/06/03 08:21:42;;;;;;;9.77;7.90;;;21.10;99.90;;;;;;5071017;28;20131;-82
2022/06/03 08:24:15;;;;;;;12.73;8.73;;;21.20;99.90;;;;;;5069881;28;20116;-82
2022/06/03 08:26:46;;;;;;;15.35;8.45;;;21.20;99.90;;;;;;5071807;28;20049;-82
2022/06/03 08:29:17;;;;;;;10.18;7.93;;;21.20;99.90;;;;;;5072398;28;20079;-82
2022/06/03 08:31:45;;;;;;;12.48;7.95;;;21.30;99.90;;;;;;5060715;28;20051;-83
2022/06/03 08:34:22;;;;;;;12.95;8.63;;;21.40;99.90;;;;;;5057264;28;20084;-82
2022/06/03 08:36:52;;;;;;;8.07;7.18;;;21.40;99.90;;;;;;5072350;28;20052;-83
2022/06/03 08:39:23;;;;;;;12.93;7.20;;;21.50;99.90;;;;;;5054726;28;20053;-83
2022/06/03 08:42:18;;;;;;;10.65;7.00;;;21.60;99.90;;;;;;5069871;28;20080;-83
2022/06/03 08:45:03;;;;;;;10.48;6.45;;;21.90;99.90;;;;;;5060861;28;20072;-83
2022/06/03 08:47:48;;;;;;;8.95;7.75;;;22.30;99.90;;;;;;5061613;28;20053;-81
2022/06/03 08:50:41;;;;;;;9.77;7.05;;;22.50;99.90;;;;;;5059411;28;20135;-82
2022/06/03 08:53:34;;;;;;;8.13;6.85;;;22.50;99.90;;;;;;5070100;28;20045;-82
2022/06/03 08:56:07;;;;;;;9.77;6.35;;;22.50;99.90;;;;;;5069926;28;20049;-82
2022/06/03 08:59:00;;;;;;;8.57;6.15;;;22.40;99.90;;;;;;5071664;28;20091;-83
2022/06/03 09:01:51;;;;;;;6.53;5.93;;;22.20;99.90;;;;;;5071020;28;20048;-83
2022/06/03 09:04:21;;;;;;;12.27;6.80;;;22.20;99.90;;;;;;5069825;28;20056;-82
2022/06/03 09:07:10;;;;;;;9.57;7.28;;;22.20;99.90;;;;;;5067843;28;20053;-83
2022/06/03 09:09:54;;;;;;;13.23;9.23;;;22.20;99.90;;;;;;5069805;28;20136;-82
2022/06/03 09:12:29;;;;;;;11.00;7.93;;;22.30;99.90;;;;;;5069213;28;20292;-82
2022/06/03 09:15:05;;;;;;;15.10;9.55;;;22.30;99.90;;;;;;5057694;28;20111;-83
2022/06/03 09:17:42;;;;;;;15.18;9.90;;;22.20;99.90;;;;;;5068316;28;20526;-82
2022/06/03 09:20:17;;;;;;;12.30;9.05;;;22.20;99.90;;;;;;5067677;28;20055;-82
2022/06/03 09:22:46;;;;;;;9.65;8.70;;;22.30;99.90;;;;;;5067163;28;20049;-82
2022/06/03 09:25:16;;;;;;;10.40;8.80;;;22.20;99.90;;;;;;5052515;28;20131;-81
2022/06/03 09:27:46;;;;;;;11.73;9.23;;;22.30;99.90;;;;;;5072037;28;20062;-84
2022/06/03 09:30:23;;;;;;;10.43;8.57;;;22.30;99.90;;;;;;5071442;28;20045;-82
2022/06/03 09:32:51;;;;;;;12.10;8.50;;;22.10;99.90;;;;;;5050711;28;20055;-83
2022/06/03 09:35:21;;;;;;;13.60;8.38;;;22.10;99.90;;;;;;5061396;28;20064;-83
2022/06/03 09:37:51;;;;;;;11.40;9.05;;;22.30;99.90;;;;;;5052078;28;20512;-83
2022/06/03 09:40:22;;;;;;;8.93;7.45;;;22.50;99.90;;;;;;5051240;28;20049;-83
2022/06/03 09:42:59;;;;;;;14.18;8.40;;;22.40;99.90;;;;;;5071621;28;20070;-82
2022/06/03 09:45:27;;;;;;;9.45;8.10;;;22.40;99.90;;;;;;5069263;28;20053;-84
2022/06/03 09:47:55;;;;;;;11.48;8.50;;;22.30;99.90;;;;;;5069194;28;20048;-84
2022/06/03 09:50:24;;;;;;;11.85;8.18;;;22.20;99.90;;;;;;5052338;28;20063;-82
2022/06/03 09:53:04;;;;;;;12.23;8.88;;;22.10;99.90;;;;;;5068224;28;20048;-83
2022/06/03 09:55:41;;;;;;;10.48;8.25;;;22.00;99.90;;;;;;5057192;28;20045;-82
2022/06/03 09:58:17;;;;;;;10.77;9.30;;;21.80;99.90;;;;;;5050500;28;20049;-82
2022/06/03 10:00:48;;;;;;;17.73;9.20;;;21.70;99.90;;;;;;5067943;28;20048;-83
2022/06/03 10:03:16;;;;;;;11.85;8.68;;;21.60;99.90;;;;;;5070530;28;20076;-82
2022/06/03 10:05:47;;;;;;;11.20;9.43;;;21.70;99.90;;;;;;5070162;28;20135;-83
2022/06/03 10:08:17;;;;;;;13.52;11.38;;;21.80;99.90;;;;;;5068823;28;20091;-80
2022/06/03 10:13:31;;;;;;;16.67;12.63;;;21.40;99.90;;;;;;5067982;28;20080;-82
2022/06/03 10:16:00;;;;;;;18.48;13.43;;;21.30;99.90;;;;;;5071559;28;20478;-82
2022/06/03 10:18:33;;;;;;;15.57;12.95;;;21.20;99.90;;;;;;5067344;28;20506;-83
2022/06/03 10:21:06;;;;;;;19.05;12.20;;;21.20;99.90;;;;;;5069366;28;20080;-82
2022/06/03 10:23:42;;;;;;;12.30;10.90;;;21.30;99.90;;;;;;5068951;28;20147;-83
2022/06/03 10:26:51;;;;;;;15.82;10.18;;;21.40;99.90;;;;;;5059492;28;20049;-83
2022/06/03 10:29:25;;;;;;;13.93;10.20;;;21.70;99.90;;;;;;5068144;28;20059;-84
2022/06/03 10:32:00;;;;;;;11.50;10.10;;;21.90;99.90;;;;;;5066793;28;20045;-82
2022/06/03 10:34:37;;;;;;;11.15;9.45;;;22.00;99.90;;;;;;5068802;28;20051;-82
2022/06/03 10:37:08;;;;;;;11.40;8.32;;;22.20;99.90;;;;;;5070404;28;20135;-83
2022/06/03 10:39:35;;;;;;;9.50;8.60;;;22.20;99.90;;;;;;5057058;28;20161;-82
2022/06/03 10:42:02;;;;;;;9.23;7.68;;;22.30;99.90;;;;;;5049696;28;20132;-83
2022/06/03 10:44:36;;;;;;;12.45;8.15;;;22.30;99.90;;;;;;5068628;28;20070;-83
2022/06/03 10:47:05;;;;;;;12.57;7.95;;;22.30;99.90;;;;;;5068949;28;20056;-83
2022/06/03 10:49:36;;;;;;;11.55;7.43;;;22.30;99.90;;;;;;5048679;28;20541;-82
2022/06/03 11:03:28;;;;;;;8.65;6.47;;;22.80;99.90;;;;;;5068550;28;20048;-83
2022/06/03 11:05:56;;;;;;;10.00;7.80;;;23.10;99.90;;;;;;5066822;28;20089;-83
2022/06/03 11:08:23;;;;;;;9.70;8.13;;;23.30;99.90;;;;;;5070348;28;20058;-82
2022/06/03 11:10:54;;;;;;;11.98;7.93;;;23.40;99.90;;;;;;5049974;28;20053;-83
2022/06/03 11:13:26;;;;;;;11.60;8.77;;;23.60;99.90;;;;;;5069679;28;20068;-83
2022/06/03 11:15:53;;;;;;;12.27;7.50;;;23.80;99.90;;;;;;5059902;28;20049;-84
2022/06/03 11:18:28;;;;;;;11.82;6.88;;;24.00;99.90;;;;;;5067083;28;20077;-81
2022/06/03 11:20:57;;;;;;;12.75;7.30;;;24.20;99.90;;;;;;5053663;28;20049;-84
2022/06/03 11:23:24;;;;;;;7.80;7.00;;;24.30;99.90;;;;;;5069764;28;20057;-84
2022/06/03 11:25:57;;;;;;;12.93;7.97;;;24.40;99.90;;;;;;5068705;28;20057;-83
2022/06/03 11:28:40;;;;;;;10.57;7.65;;;24.40;99.90;;;;;;5071992;28;20040;-84
2022/06/03 11:31:34;;;;;;;14.88;7.32;;;24.30;99.90;;;;;;5051962;28;20045;-84
2022/06/03 11:34:25;;;;;;;10.05;6.93;;;24.20;99.90;;;;;;5068133;28;20049;-84
2022/06/03 11:36:59;;;;;;;9.15;7.30;;;24.20;99.90;;;;;;5067748;28;20124;-84
2022/06/03 11:39:32;;;;;;;10.60;6.53;;;24.20;99.90;;;;;;5067068;28;20080;-82
2022/06/03 11:42:05;;;;;;;10.80;6.45;;;24.20;99.90;;;;;;5070478;28;20085;-83
2022/06/03 11:44:45;;;;;;;9.27;6.95;;;24.20;99.90;;;;;;5066961;28;20106;-83
2022/06/03 11:47:37;;;;;;;7.20;5.07;;;24.40;99.90;;;;;;5049718;28;20418;-83
2022/06/03 11:50:07;;;;;;;4.75;4.25;;;24.50;99.90;;;;;;5069187;28;20067;-83
2022/06/03 11:52:34;;;;;;;11.48;5.05;;;24.60;99.90;;;;;;5050934;28;20044;-84
2022/06/03 11:55:01;;;;;;;6.90;4.88;;;24.70;99.90;;;;;;5058287;28;20045;-83
2022/06/03 11:57:28;;;;;;;6.93;4.53;;;24.80;99.90;;;;;;5077200;28;20072;-84
2022/06/03 12:00:05;;;;;;;7.30;4.40;;;24.80;99.90;;;;;;5064122;28;20036;-87
2022/06/03 12:02:40;;;;;;;7.47;4.63;;;24.80;99.90;;;;;;5097672;22;20048;-83
2022/06/03 12:05:24;;;;;;;7.22;3.65;;;25.00;99.90;;;;;;5074924;28;20048;-83
2022/06/03 12:08:10;;;;;;;7.15;4.15;;;25.00;99.90;;;;;;5069861;28;20056;-82
2022/06/03 12:10:52;;;;;;;5.18;3.50;;;25.00;99.90;;;;;;5054580;28;20120;-82
2022/06/03 12:13:27;;;;;;;6.75;4.13;;;24.90;99.90;;;;;;5044664;28;20033;-82
2022/06/03 12:15:53;;;;;;;6.22;3.10;;;24.80;99.90;;;;;;5040522;28;20049;-84
2022/06/03 12:18:32;;;;;;;3.22;2.80;;;24.80;99.90;;;;;;5054725;28;20072;-81
2022/06/03 12:21:08;;;;;;;7.32;2.97;;;24.70;99.90;;;;;;5052682;28;20053;-82
2022/06/03 12:23:38;;;;;;;3.92;2.70;;;24.70;99.90;;;;;;5035270;28;20117;-83
2022/06/03 12:26:11;;;;;;;5.80;3.42;;;24.60;99.90;;;;;;5048383;28;20132;-82
2022/06/03 12:28:37;;;;;;;5.60;2.83;;;24.60;99.90;;;;;;5057304;28;20479;-83
2022/06/03 12:31:15;;;;;;;4.68;2.65;;;24.70;99.90;;;;;;5060190;28;20049;-82
2022/06/03 12:34:01;;;;;;;2.58;2.03;;;24.90;99.90;;;;;;5054600;28;20041;-83
2022/06/03 12:36:50;;;;;;;3.17;2.30;;;25.00;99.90;;;;;;5051338;28;20051;-82
2022/06/03 12:39:29;;;;;;;4.97;2.55;;;25.10;99.90;;;;;;5059510;28;20064;-83
2022/06/03 12:42:11;;;;;;;4.68;2.08;;;25.30;99.90;;;;;;5040339;28;20124;-83
2022/06/03 12:44:49;;;;;;;3.55;2.53;;;25.50;99.90;;;;;;5040222;28;20052;-85
2022/06/03 12:47:31;;;;;;;7.45;2.70;;;25.70;99.90;;;;;;5045959;28;20213;-82
2022/06/03 12:50:04;;;;;;;6.75;2.70;;;25.90;99.90;;;;;;5052713;28;20483;-83
2022/06/03 12:52:36;;;;;;;3.75;2.40;;;26.00;99.90;;;;;;5059168;28;20097;-83
2022/06/03 12:55:17;;;;;;;2.53;2.10;;;26.10;99.90;;;;;;5057967;28;20046;-82
2022/06/03 12:58:22;;;;;;;2.78;2.17;;;26.20;99.90;;;;;;5056818;28;20052;-80
2022/06/03 13:00:55;;;;;;;4.53;2.10;;;26.30;99.90;;;;;;5039408;28;20127;-82
2022/06/03 13:03:25;;;;;;;3.25;2.10;;;26.40;99.90;;;;;;5047108;28;20048;-82
2022/06/03 13:05:54;;;;;;;;;;;26.30;99.90;;;;;;5053383;28;20053;-84
2022/06/03 13:08:27;;;;;;;2.22;1.50;;;26.40;99.90;;;;;;5025706;28;20007;-82
2022/06/03 13:11:00;;;;;;;3.92;1.50;;;26.40;99.90;;;;;;5035409;28;20129;-83
2022/06/03 13:13:28;;;;;;;1.95;1.50;;;26.60;99.90;;;;;;5061024;28;20045;-82
2022/06/03 13:16:23;;;;;;;3.53;1.70;;;26.60;99.90;;;;;;5043896;28;20047;-81
2022/06/03 13:18:53;;;;;;;2.25;1.50;;;26.70;99.90;;;;;;5054521;28;20049;-80
2022/06/03 13:21:44;;;;;;;2.08;1.70;;;26.90;99.90;;;;;;5053421;28;20049;-81
2022/06/03 13:24:25;;;;;;;5.82;1.77;;;26.80;99.90;;;;;;5049225;28;20120;-81
2022/06/03 13:27:11;;;;;;;3.25;1.80;;;26.60;99.90;;;;;;5054028;28;20128;-82
2022/06/03 13:29:50;;;;;;;4.30;1.65;;;26.30;99.90;;;;;;5055095;28;20502;-80
2022/06/03 13:32:36;;;;;;;2.53;1.88;;;26.10;99.90;;;;;;5052706;28;20072;-82
2022/06/03 13:35:25;;;;;;;2.53;1.10;;;26.00;99.90;;;;;;5038492;28;20048;-81
2022/06/03 13:38:22;;;;;;;1.45;1.13;;;26.00;99.90;;;;;;5054065;28;20075;-82
2022/06/03 13:42:57;;;;;;;3.50;1.08;;;26.00;99.90;;;;;;5057619;28;20040;-82
2022/06/03 13:44:09;;;;;;;1.65;0.88;;;26.10;99.90;;;;;;5055470;28;20490;-83
2022/06/03 13:46:37;;;;;;;1.48;0.90;;;26.40;99.90;;;;;;5043234;28;20045;-81
2022/06/03 13:49:27;;;;;;;1.95;0.70;;;26.60;99.90;;;;;;5057070;28;20143;-82
2022/06/03 13:52:09;;;;;;;1.95;0.90;;;26.80;99.90;;;;;;5033603;28;20041;-82
2022/06/03 13:54:46;;;;;;;4.15;0.80;;;26.80;99.90;;;;;;5035444;28;20403;-82
2022/06/03 13:57:16;;;;;;;2.38;0.93;;;26.80;99.90;;;;;;5055631;28;20049;-83
2022/06/03 13:59:44;;;;;;;4.07;0.95;;;26.80;99.90;;;;;;5053737;28;20057;-81
2022/06/03 14:02:22;;;;;;;1.38;0.82;;;26.90;99.90;;;;;;5051303;28;20053;-83
2022/06/03 14:05:01;;;;;;;5.68;1.27;;;26.90;99.90;;;;;;5056205;28;20072;-82
2022/06/03 14:07:38;;;;;;;2.95;0.80;;;27.10;99.90;;;;;;5044802;28;20417;-82
2022/06/03 14:10:18;;;;;;;1.95;0.80;;;27.30;99.90;;;;;;5054649;28;20040;-83
2022/06/03 14:13:00;;;;;;;1.73;0.80;;;27.40;99.90;;;;;;5058860;28;20045;-83
2022/06/03 14:15:36;;;;;;;4.38;0.80;;;27.40;99.90;;;;;;5035126;28;20422;-81
2022/06/03 14:18:04;;;;;;;1.55;0.93;;;27.50;99.90;;;;;;5041583;28;20065;-83
2022/06/03 14:20:37;;;;;;;1.98;0.75;;;27.50;99.90;;;;;;5053955;28;20045;-82
2022/06/03 14:23:36;;;;;;;2.78;0.90;;;27.60;99.90;;;;;;5054526;28;20049;-84
2022/06/03 14:26:14;;;;;;;1.38;0.70;;;27.60;99.90;;;;;;5056641;28;20096;-82
2022/06/03 14:29:06;;;;;;;1.95;0.80;;;27.60;99.90;;;;;;5040516;28;20049;-82
2022/06/03 14:31:57;;;;;;;1.75;1.05;;;27.50;99.90;;;;;;5048165;28;20103;-82